sensor_id;sensor_type;location;lat;lon;timestamp;temperature;humidity
34522;DHT22;25561;48.888;8.736;2023-03-01T06:50:00;-1.80;99.90
34522;DHT22;25561;48.888;8.736;2023-03-01T06:53:03;-1.60;99.90
34522;DHT22;25561;48.888;8.736;2023-03-01T06:56:05;-1.30;99.90
34522;DHT22;25561;48.888;8.736;2023-03-01T06:59:07;-1.10;99.90
34522;DHT22;25561;48.888;8.736;2023-03-01T07:02:11;-0.80;99.90
34522;DHT22;25561;48.888;8.736;2023-03-01T07:05:13;-0.80;99.90
34522;DHT22;25561;48.888;8.736;2023-03-01T07:08:16;-0.70;99.90
34522;DHT22;25561;48.888;8.736;2023-03-01T07:11:19;-0.60;99.90
34522;DHT22;25561;48.888;8.736;2023-03-01T07:14:23;-0.50;99.90
34522;DHT22;25561;48.888;8.736;2023-03-01T07:17:29;-0.20;99.90
34522;DHT22;25561;48.888;8.736;2023-03-01T07:20:35;-0.10;99.90
34522;DHT22;25561;48.888;8.736;2023-03-01T07:23:40;0.30;99.90
34522;DHT22;25561;48.888;8.736;2023-03-01T07:26:44;0.70;99.90
34522;DHT22;25561;48.888;8.736;2023-03-01T07:29:46;1.10;99.90
34522;DHT22;25561;48.888;8.736;2023-03-01T07:32:48;1.70;99.90
34522;DHT22;25561;48.888;8.736;2023-03-01T07:35:59;2.00;99.90
34522;DHT22;25561;48.888;8.736;2023-03-01T07:39:01;1.80;99.90
34522;DHT22;25561;48.888;8.736;2023-03-01T07:42:04;1.80;99.90
34522;DHT22;25561;48.888;8.736;2023-03-01T07:45:06;1.80;99.90
34522;DHT22;25561;48.888;8.736;2023-03-01T07:48:08;1.70;99.90
34522;DHT22;25561;48.888;8.736;2023-03-01T07:51:11;1.40;99.90
34522;DHT22;25561;48.888;8.736;2023-03-01T07:54:13;1.40;99.90
34522;DHT22;25561;48.888;8.736;2023-03-01T07:57:15;1.30;99.90
34522;DHT22;25561;48.888;8.736;2023-03-01T08:00:18;2.10;99.90
34522;DHT22;25561;48.888;8.736;2023-03-01T08:03:20;2.40;99.90
34522;DHT22;25561;48.888;8.736;2023-03-01T08:06:22;2.70;99.90
34522;DHT22;25561;48.888;8.736;2023-03-01T08:09:24;2.50;99.90
34522;DHT22;25561;48.888;8.736;2023-03-01T08:12:26;2.40;99.90
34522;DHT22;25561;48.888;8.736;2023-03-01T08:15:30;3.00;99.90
34522;DHT22;25561;48.888;8.736;2023-03-01T08:18:33;3.90;99.90
34522;DHT22;25561;48.888;8.736;2023-03-01T08:21:34;3.70;99.90
34522;DHT22;25561;48.888;8.736;2023-03-01T08:24:37;4.00;99.90
34522;DHT22;25561;48.888;8.736;2023-03-01T08:27:39;4.30;99.90
34522;DHT22;25561;48.888;8.736;2023-03-01T08:30:41;4.50;99.90
34522;DHT22;25561;48.888;8.736;2023-03-01T08:33:42;5.50;99.90
34522;DHT22;25561;48.888;8.736;2023-03-01T08:36:45;6.30;99.90
34522;DHT22;25561;48.888;8.736;2023-03-01T08:39:49;6.50;99.90
34522;DHT22;25561;48.888;8.736;2023-03-01T08:42:53;7.00;99.90
34522;DHT22;25561;48.888;8.736;2023-03-01T08:45:55;8.00;99.90
34522;DHT22;25561;48.888;8.736;2023-03-01T08:48:57;8.40;99.90
34522;DHT22;25561;48.888;8.736;2023-03-01T08:51:59;8.00;99.90
34522;DHT22;25561;48.888;8.736;2023-03-01T08:55:06;8.10;99.90
34522;DHT22;25561;48.888;8.736;2023-03-01T08:58:10;8.30;99.90
34522;DHT22;25561;48.888;8.736;2023-03-01T09:01:21;8.70;99.90
34522;DHT22;25561;48.888;8.736;2023-03-01T09:04:40;8.60;99.90
34522;DHT22;25561;48.888;8.736;2023-03-01T09:07:46;8.60;99.90
34522;DHT22;25561;48.888;8.736;2023-03-01T09:42:53;9.70;99.90
34522;DHT22;25561;48.888;8.736;2023-03-01T09:46:04;9.50;99.90
34522;DHT22;25561;48.888;8.736;2023-03-01T09:49:19;9.30;99.90
34522;DHT22;25561;48.888;8.736;2023-03-01T09:52:36;9.30;99.90
34522;DHT22;25561;48.888;8.736;2023-03-01T09:55:55;8.40;99.90
34522;DHT22;25561;48.888;8.736;2023-03-01T10:08:59;8.90;99.90
34522;DHT22;25561;48.888;8.736;2023-03-01T10:12:10;9.00;99.90
34522;DHT22;25561;48.888;8.736;2023-03-01T10:15:41;9.10;99.90
34522;DHT22;25561;48.888;8.736;2023-03-01T10:18:47;9.30;99.90
34522;DHT22;25561;48.888;8.736;2023-03-01T10:21:54;9.80;99.90
34522;DHT22;25561;48.888;8.736;2023-03-01T10:25:02;8.50;99.90
34522;DHT22;25561;48.888;8.736;2023-03-01T10:28:29;8.60;99.90
34522;DHT22;25561;48.888;8.736;2023-03-01T10:31:54;8.60;99.90
34522;DHT22;25561;48.888;8.736;2023-03-01T10:34:57;9.10;99.90
34522;DHT22;25561;48.888;8.736;2023-03-01T10:41:10;8.90;99.90
34522;DHT22;25561;48.888;8.736;2023-03-01T10:44:39;9.10;99.90
34522;DHT22;25561;48.888;8.736;2023-03-01T10:47:45;8.60;99.90
34522;DHT22;25561;48.888;8.736;2023-03-01T10:50:51;8.40;99.90
34522;DHT22;25561;48.888;8.736;2023-03-01T10:57:39;8.50;99.90
34522;DHT22;25561;48.888;8.736;2023-03-01T11:00:58;8.20;99.90
34522;DHT22;25561;48.888;8.736;2023-03-01T11:04:11;7.90;99.90
34522;DHT22;25561;48.888;8.736;2023-03-01T11:07:17;8.10;99.90
34522;DHT22;25561;48.888;8.736;2023-03-01T11:10:27;8.10;99.90
34522;DHT22;25561;48.888;8.736;2023-03-01T11:13:55;8.70;99.90
34522;DHT22;25561;48.888;8.736;2023-03-01T11:17:04;8.80;99.90
34522;DHT22;25561;48.888;8.736;2023-03-01T11:23:15;8.00;99.90
34522;DHT22;25561;48.888;8.736;2023-03-01T11:26:17;8.40;99.90
34522;DHT22;25561;48.888;8.736;2023-03-01T11:29:35;8.10;99.90
34522;DHT22;25561;48.888;8.736;2023-03-01T11:33:03;7.90;99.90
34522;DHT22;25561;48.888;8.736;2023-03-01T11:39:27;8.10;99.90
34522;DHT22;25561;48.888;8.736;2023-03-01T11:42:58;8.40;99.90
34522;DHT22;25561;48.888;8.736;2023-03-01T11:46:39;8.50;99.90
34522;DHT22;25561;48.888;8.736;2023-03-01T11:50:05;8.50;99.90
34522;DHT22;25561;48.888;8.736;2023-03-01T11:59:49;8.40;99.90
34522;DHT22;25561;48.888;8.736;2023-03-01T12:10:01;6.20;99.90
34522;DHT22;25561;48.888;8.736;2023-03-01T12:33:47;5.60;99.90
34522;DHT22;25561;48.888;8.736;2023-03-01T12:43:47;5.80;99.90
34522;DHT22;25561;48.888;8.736;2023-03-01T12:50:19;6.10;99.90
34522;DHT22;25561;48.888;8.736;2023-03-01T12:53:29;6.10;99.90
34522;DHT22;25561;48.888;8.736;2023-03-01T12:56:36;6.20;99.90
34522;DHT22;25561;48.888;8.736;2023-03-01T13:03:25;6.40;99.90
34522;DHT22;25561;48.888;8.736;2023-03-01T13:13:13;6.20;99.90
34522;DHT22;25561;48.888;8.736;2023-03-01T13:16:40;6.60;99.90
34522;DHT22;25561;48.888;8.736;2023-03-01T13:19:58;6.70;99.90
34522;DHT22;25561;48.888;8.736;2023-03-01T13:23:06;6.70;99.90
34522;DHT22;25561;48.888;8.736;2023-03-01T13:26:16;6.70;99.90
34522;DHT22;25561;48.888;8.736;2023-03-01T13:29:28;6.70;99.90
34522;DHT22;25561;48.888;8.736;2023-03-01T13:32:44;6.50;99.90
34522;DHT22;25561;48.888;8.736;2023-03-01T13:35:46;6.40;99.90
34522;DHT22;25561;48.888;8.736;2023-03-01T13:41:59;6.30;99.90
34522;DHT22;25561;48.888;8.736;2023-03-01T13:45:03;6.20;99.90
34522;DHT22;25561;48.888;8.736;2023-03-01T13:48:18;6.40;99.90
34522;DHT22;25561;48.888;8.736;2023-03-01T13:51:26;6.50;99.90
34522;DHT22;25561;48.888;8.736;2023-03-01T13:54:31;6.50;99.90
34522;DHT22;25561;48.888;8.736;2023-03-01T13:57:35;6.50;99.90
34522;DHT22;25561;48.888;8.736;2023-03-01T14:00:39;6.50;99.90
34522;DHT22;25561;48.888;8.736;2023-03-01T14:03:42;6.30;99.90
34522;DHT22;25561;48.888;8.736;2023-03-01T14:06:44;6.30;99.90
34522;DHT22;25561;48.888;8.736;2023-03-01T14:09:54;6.40;99.90
34522;DHT22;25561;48.888;8.736;2023-03-01T14:13:18;6.30;99.90
34522;DHT22;25561;48.888;8.736;2023-03-01T14:16:42;6.30;99.90
34522;DHT22;25561;48.888;8.736;2023-03-01T14:19:48;6.30;99.90
34522;DHT22;25561;48.888;8.736;2023-03-01T14:22:58;6.30;99.90
34522;DHT22;25561;48.888;8.736;2023-03-01T14:26:01;6.20;99.90
34522;DHT22;25561;48.888;8.736;2023-03-01T14:29:02;6.30;99.90
34522;DHT22;25561;48.888;8.736;2023-03-01T14:32:26;6.30;99.90
34522;DHT22;25561;48.888;8.736;2023-03-01T14:35:36;6.40;99.90
34522;DHT22;25561;48.888;8.736;2023-03-01T14:38:40;6.30;99.90
34522;DHT22;25561;48.888;8.736;2023-03-01T14:41:42;6.20;99.90
34522;DHT22;25561;48.888;8.736;2023-03-01T14:44:47;6.20;99.90
34522;DHT22;25561;48.888;8.736;2023-03-01T14:47:50;6.20;99.90
34522;DHT22;25561;48.888;8.736;2023-03-01T14:50:52;6.40;99.90
34522;DHT22;25561;48.888;8.736;2023-03-01T14:53:55;6.40;99.90
34522;DHT22;25561;48.888;8.736;2023-03-01T14:57:02;6.50;99.90
34522;DHT22;25561;48.888;8.736;2023-03-01T15:00:06;6.40;99.90
34522;DHT22;25561;48.888;8.736;2023-03-01T15:03:17;6.30;99.90
34522;DHT22;25561;48.888;8.736;2023-03-01T15:06:22;6.30;99.90
34522;DHT22;25561;48.888;8.736;2023-03-01T15:09:24;6.50;99.90
34522;DHT22;25561;48.888;8.736;2023-03-01T15:15:37;6.30;99.90
34522;DHT22;25561;48.888;8.736;2023-03-01T15:18:49;6.40;99.90
34522;DHT22;25561;48.888;8.736;2023-03-01T15:21:51;6.60;99.90
34522;DHT22;25561;48.888;8.736;2023-03-01T15:24:54;6.60;99.90
34522;DHT22;25561;48.888;8.736;2023-03-01T15:27:58;6.40;99.90
34522;DHT22;25561;48.888;8.736;2023-03-01T15:31:20;6.30;99.90
34522;DHT22;25561;48.888;8.736;2023-03-01T15:34:29;6.40;99.90
34522;DHT22;25561;48.888;8.736;2023-03-01T15:40:36;6.30;99.90
34522;DHT22;25561;48.888;8.736;2023-03-01T15:43:50;6.40;99.90
34522;DHT22;25561;48.888;8.736;2023-03-01T15:46:52;6.30;99.90
34522;DHT22;25561;48.888;8.736;2023-03-01T15:49:55;6.30;99.90
34522;DHT22;25561;48.888;8.736;2023-03-01T15:52:58;6.30;99.90
34522;DHT22;25561;48.888;8.736;2023-03-01T15:56:00;6.20;99.90
34522;DHT22;25561;48.888;8.736;2023-03-01T15:59:03;6.20;99.90
34522;DHT22;25561;48.888;8.736;2023-03-01T16:02:10;6.20;99.90
34522;DHT22;25561;48.888;8.736;2023-03-01T16:08:22;6.20;99.90
34522;DHT22;25561;48.888;8.736;2023-03-01T16:11:23;6.10;99.90
34522;DHT22;25561;48.888;8.736;2023-03-01T16:14:25;6.10;99.90
34522;DHT22;25561;48.888;8.736;2023-03-01T16:17:27;6.00;99.90
34522;DHT22;25561;48.888;8.736;2023-03-01T16:20:29;6.00;99.90
34522;DHT22;25561;48.888;8.736;2023-03-01T16:23:34;5.90;99.90
34522;DHT22;25561;48.888;8.736;2023-03-01T16:26:36;5.90;99.90
34522;DHT22;25561;48.888;8.736;2023-03-01T16:29:38;5.80;99.90
34522;DHT22;25561;48.888;8.736;2023-03-01T16:32:41;5.80;99.90
34522;DHT22;25561;48.888;8.736;2023-03-01T16:35:44;5.80;99.90
34522;DHT22;25561;48.888;8.736;2023-03-01T16:38:46;5.70;99.90
34522;DHT22;25561;48.888;8.736;2023-03-01T16:41:48;5.70;99.90
34522;DHT22;25561;48.888;8.736;2023-03-01T16:44:57;5.60;99.90
34522;DHT22;25561;48.888;8.736;2023-03-01T16:47:59;5.60;99.90
34522;DHT22;25561;48.888;8.736;2023-03-01T16:51:01;5.60;99.90
34522;DHT22;25561;48.888;8.736;2023-03-01T16:54:03;5.50;99.90
34522;DHT22;25561;48.888;8.736;2023-03-01T16:57:06;5.50;99.90
